sensor_id;sensor_type;location;lat;lon;timestamp;P1;durP1;ratioP1;P2;durP2;ratioP2
60054;SDS011;45930;53.514;55.904;2024-01-27T00:00:40;22.83;;;17.00;;
60054;SDS011;45930;53.514;55.904;2024-01-27T00:01:40;20.40;;;15.37;;
60054;SDS011;45930;53.514;55.904;2024-01-27T00:02:41;20.50;;;14.40;;
60054;SDS011;45930;53.514;55.904;2024-01-27T00:03:42;20.37;;;14.80;;
60054;SDS011;45930;53.514;55.904;2024-01-27T00:04:43;19.30;;;13.93;;
60054;SDS011;45930;53.514;55.904;2024-01-27T00:05:43;15.33;;;11.63;;
60054;SDS011;45930;53.514;55.904;2024-01-27T00:06:44;17.37;;;12.10;;
60054;SDS011;45930;53.514;55.904;2024-01-27T00:07:45;18.97;;;11.50;;
60054;SDS011;45930;53.514;55.904;2024-01-27T00:08:45;13.30;;;10.60;;
60054;SDS011;45930;53.514;55.904;2024-01-27T00:09:46;15.30;;;11.23;;
60054;SDS011;45930;53.514;55.904;2024-01-27T00:10:47;14.80;;;9.77;;
60054;SDS011;45930;53.514;55.904;2024-01-27T00:11:47;11.80;;;9.67;;
60054;SDS011;45930;53.514;55.904;2024-01-27T00:12:48;18.03;;;9.30;;
60054;SDS011;45930;53.514;55.904;2024-01-27T00:13:49;11.67;;;8.27;;
60054;SDS011;45930;53.514;55.904;2024-01-27T00:14:50;12.57;;;8.73;;
60054;SDS011;45930;53.514;55.904;2024-01-27T00:15:50;13.13;;;8.90;;
60054;SDS011;45930;53.514;55.904;2024-01-27T00:16:51;13.55;;;8.82;;
60054;SDS011;45930;53.514;55.904;2024-01-27T00:17:52;15.03;;;9.17;;
60054;SDS011;45930;53.514;55.904;2024-01-27T00:18:53;13.00;;;9.23;;
60054;SDS011;45930;53.514;55.904;2024-01-27T00:19:54;12.60;;;8.80;;
60054;SDS011;45930;53.514;55.904;2024-01-27T00:20:54;12.40;;;8.17;;
60054;SDS011;45930;53.514;55.904;2024-01-27T00:21:55;13.40;;;7.67;;
60054;SDS011;45930;53.514;55.904;2024-01-27T00:22:56;11.97;;;8.30;;
60054;SDS011;45930;53.514;55.904;2024-01-27T00:23:56;11.83;;;7.93;;
60054;SDS011;45930;53.514;55.904;2024-01-27T00:25:01;11.40;;;7.95;;
60054;SDS011;45930;53.514;55.904;2024-01-27T00:26:01;13.63;;;8.97;;
60054;SDS011;45930;53.514;55.904;2024-01-27T00:27:02;13.17;;;8.23;;
60054;SDS011;45930;53.514;55.904;2024-01-27T00:28:04;13.57;;;8.50;;
60054;SDS011;45930;53.514;55.904;2024-01-27T00:29:05;11.10;;;8.30;;
60054;SDS011;45930;53.514;55.904;2024-01-27T00:30:05;12.63;;;8.20;;
60054;SDS011;45930;53.514;55.904;2024-01-27T00:31:07;11.98;;;7.50;;
60054;SDS011;45930;53.514;55.904;2024-01-27T00:32:08;12.97;;;7.83;;
60054;SDS011;45930;53.514;55.904;2024-01-27T00:33:08;12.63;;;8.03;;
60054;SDS011;45930;53.514;55.904;2024-01-27T00:34:10;11.18;;;7.68;;
60054;SDS011;45930;53.514;55.904;2024-01-27T00:35:10;12.43;;;8.20;;
60054;SDS011;45930;53.514;55.904;2024-01-27T00:36:14;12.23;;;7.38;;
60054;SDS011;45930;53.514;55.904;2024-01-27T00:37:15;10.77;;;7.93;;
60054;SDS011;45930;53.514;55.904;2024-01-27T00:38:16;11.80;;;7.77;;
60054;SDS011;45930;53.514;55.904;2024-01-27T00:39:19;9.70;;;6.77;;
60054;SDS011;45930;53.514;55.904;2024-01-27T00:40:20;13.57;;;8.00;;
60054;SDS011;45930;53.514;55.904;2024-01-27T00:41:21;12.87;;;7.53;;
60054;SDS011;45930;53.514;55.904;2024-01-27T00:42:22;14.70;;;8.17;;
60054;SDS011;45930;53.514;55.904;2024-01-27T00:43:24;10.82;;;7.43;;
60054;SDS011;45930;53.514;55.904;2024-01-27T00:44:24;9.40;;;7.13;;
60054;SDS011;45930;53.514;55.904;2024-01-27T00:45:25;10.90;;;7.87;;
60054;SDS011;45930;53.514;55.904;2024-01-27T00:46:27;13.88;;;8.27;;
60054;SDS011;45930;53.514;55.904;2024-01-27T00:47:28;11.83;;;7.87;;
60054;SDS011;45930;53.514;55.904;2024-01-27T00:48:28;12.47;;;7.77;;
60054;SDS011;45930;53.514;55.904;2024-01-27T00:49:29;12.47;;;7.67;;
60054;SDS011;45930;53.514;55.904;2024-01-27T00:50:30;12.93;;;8.00;;
60054;SDS011;45930;53.514;55.904;2024-01-27T00:51:31;15.70;;;8.77;;
60054;SDS011;45930;53.514;55.904;2024-01-27T00:52:32;10.68;;;7.30;;
60054;SDS011;45930;53.514;55.904;2024-01-27T00:53:33;12.10;;;8.83;;
60054;SDS011;45930;53.514;55.904;2024-01-27T00:54:34;11.07;;;8.47;;
60054;SDS011;45930;53.514;55.904;2024-01-27T00:55:34;11.70;;;8.87;;
60054;SDS011;45930;53.514;55.904;2024-01-27T00:56:35;12.40;;;7.90;;
60054;SDS011;45930;53.514;55.904;2024-01-27T00:57:36;13.27;;;7.97;;
60054;SDS011;45930;53.514;55.904;2024-01-27T00:58:40;15.05;;;8.30;;
60054;SDS011;45930;53.514;55.904;2024-01-27T00:59:41;11.98;;;7.40;;
60054;SDS011;45930;53.514;55.904;2024-01-27T01:00:42;10.80;;;7.60;;
60054;SDS011;45930;53.514;55.904;2024-01-27T01:01:43;12.00;;;8.10;;
60054;SDS011;45930;53.514;55.904;2024-01-27T01:02:43;10.60;;;7.90;;
60054;SDS011;45930;53.514;55.904;2024-01-27T01:03:44;10.60;;;7.33;;
60054;SDS011;45930;53.514;55.904;2024-01-27T01:04:45;11.85;;;7.60;;
60054;SDS011;45930;53.514;55.904;2024-01-27T01:05:46;12.93;;;7.73;;
60054;SDS011;45930;53.514;55.904;2024-01-27T01:06:47;12.27;;;7.77;;
60054;SDS011;45930;53.514;55.904;2024-01-27T01:07:48;12.77;;;8.03;;
60054;SDS011;45930;53.514;55.904;2024-01-27T01:08:48;14.50;;;8.00;;
60054;SDS011;45930;53.514;55.904;2024-01-27T01:09:49;11.43;;;7.03;;
60054;SDS011;45930;53.514;55.904;2024-01-27T01:10:50;11.57;;;8.27;;
60054;SDS011;45930;53.514;55.904;2024-01-27T01:11:50;11.67;;;7.60;;
60054;SDS011;45930;53.514;55.904;2024-01-27T01:12:51;11.33;;;8.27;;
60054;SDS011;45930;53.514;55.904;2024-01-27T01:13:52;11.47;;;8.17;;
60054;SDS011;45930;53.514;55.904;2024-01-27T01:14:53;12.27;;;8.03;;
60054;SDS011;45930;53.514;55.904;2024-01-27T01:15:53;11.53;;;7.77;;
60054;SDS011;45930;53.514;55.904;2024-01-27T01:16:54;15.00;;;7.97;;
60054;SDS011;45930;53.514;55.904;2024-01-27T01:17:55;11.67;;;7.77;;
60054;SDS011;45930;53.514;55.904;2024-01-27T01:18:55;13.10;;;8.63;;
60054;SDS011;45930;53.514;55.904;2024-01-27T01:19:56;12.53;;;8.10;;
60054;SDS011;45930;53.514;55.904;2024-01-27T01:20:57;12.67;;;8.60;;
60054;SDS011;45930;53.514;55.904;2024-01-27T01:21:57;11.10;;;8.33;;
60054;SDS011;45930;53.514;55.904;2024-01-27T01:22:58;11.03;;;7.60;;
60054;SDS011;45930;53.514;55.904;2024-01-27T01:23:59;10.80;;;7.70;;
60054;SDS011;45930;53.514;55.904;2024-01-27T01:25:00;10.43;;;7.70;;
60054;SDS011;45930;53.514;55.904;2024-01-27T01:26:01;13.50;;;7.80;;
60054;SDS011;45930;53.514;55.904;2024-01-27T01:27:01;11.40;;;7.63;;
60054;SDS011;45930;53.514;55.904;2024-01-27T01:28:03;9.85;;;7.20;;
60054;SDS011;45930;53.514;55.904;2024-01-27T01:29:04;11.17;;;7.73;;
60054;SDS011;45930;53.514;55.904;2024-01-27T01:30:05;8.87;;;6.93;;
60054;SDS011;45930;53.514;55.904;2024-01-27T01:31:06;12.60;;;8.52;;
60054;SDS011;45930;53.514;55.904;2024-01-27T01:32:08;13.55;;;7.35;;
60054;SDS011;45930;53.514;55.904;2024-01-27T01:33:10;10.37;;;6.90;;
60054;SDS011;45930;53.514;55.904;2024-01-27T01:34:11;10.95;;;7.53;;
60054;SDS011;45930;53.514;55.904;2024-01-27T01:35:12;10.03;;;7.47;;
60054;SDS011;45930;53.514;55.904;2024-01-27T01:36:13;11.60;;;7.67;;
60054;SDS011;45930;53.514;55.904;2024-01-27T01:37:13;11.03;;;7.53;;
60054;SDS011;45930;53.514;55.904;2024-01-27T01:38:14;12.43;;;8.37;;
60054;SDS011;45930;53.514;55.904;2024-01-27T01:39:15;10.63;;;7.20;;
60054;SDS011;45930;53.514;55.904;2024-01-27T01:40:15;12.37;;;7.80;;
60054;SDS011;45930;53.514;55.904;2024-01-27T01:41:16;13.00;;;8.03;;
60054;SDS011;45930;53.514;55.904;2024-01-27T01:42:17;10.97;;;7.67;;
60054;SDS011;45930;53.514;55.904;2024-01-27T01:43:18;12.38;;;7.63;;
60054;SDS011;45930;53.514;55.904;2024-01-27T01:44:19;11.17;;;7.07;;
60054;SDS011;45930;53.514;55.904;2024-01-27T01:45:19;12.10;;;8.33;;
60054;SDS011;45930;53.514;55.904;2024-01-27T01:46:21;11.13;;;7.33;;
60054;SDS011;45930;53.514;55.904;2024-01-27T01:47:23;11.45;;;7.93;;
60054;SDS011;45930;53.514;55.904;2024-01-27T01:48:25;11.48;;;7.43;;
60054;SDS011;45930;53.514;55.904;2024-01-27T01:49:26;13.07;;;7.57;;
60054;SDS011;45930;53.514;55.904;2024-01-27T01:50:27;12.47;;;7.40;;
60054;SDS011;45930;53.514;55.904;2024-01-27T01:51:27;12.73;;;8.07;;
60054;SDS011;45930;53.514;55.904;2024-01-27T01:52:28;11.70;;;7.73;;
60054;SDS011;45930;53.514;55.904;2024-01-27T01:53:29;12.33;;;7.13;;
60054;SDS011;45930;53.514;55.904;2024-01-27T01:54:30;12.63;;;7.00;;
60054;SDS011;45930;53.514;55.904;2024-01-27T01:55:32;12.45;;;7.82;;
60054;SDS011;45930;53.514;55.904;2024-01-27T01:56:33;11.02;;;7.55;;
60054;SDS011;45930;53.514;55.904;2024-01-27T01:57:35;12.13;;;7.50;;
60054;SDS011;45930;53.514;55.904;2024-01-27T01:58:36;11.37;;;7.30;;
60054;SDS011;45930;53.514;55.904;2024-01-27T01:59:37;13.50;;;7.40;;
60054;SDS011;45930;53.514;55.904;2024-01-27T02:00:40;13.20;;;7.40;;
60054;SDS011;45930;53.514;55.904;2024-01-27T02:01:41;15.05;;;7.95;;
60054;SDS011;45930;53.514;55.904;2024-01-27T02:02:43;9.80;;;7.07;;
60054;SDS011;45930;53.514;55.904;2024-01-27T02:03:54;9.98;;;6.63;;
60054;SDS011;45930;53.514;55.904;2024-01-27T02:04:55;13.85;;;8.20;;
60054;SDS011;45930;53.514;55.904;2024-01-27T02:05:56;11.50;;;7.37;;
60054;SDS011;45930;53.514;55.904;2024-01-27T02:06:56;13.97;;;7.87;;
60054;SDS011;45930;53.514;55.904;2024-01-27T02:07:57;11.93;;;7.20;;
60054;SDS011;45930;53.514;55.904;2024-01-27T02:09:00;14.68;;;7.80;;
60054;SDS011;45930;53.514;55.904;2024-01-27T02:10:01;9.37;;;6.53;;
60054;SDS011;45930;53.514;55.904;2024-01-27T02:11:04;13.90;;;7.65;;
60054;SDS011;45930;53.514;55.904;2024-01-27T02:12:05;12.47;;;7.50;;
60054;SDS011;45930;53.514;55.904;2024-01-27T02:13:19;14.13;;;8.57;;
60054;SDS011;45930;53.514;55.904;2024-01-27T02:14:20;11.27;;;7.70;;
60054;SDS011;45930;53.514;55.904;2024-01-27T02:15:25;13.05;;;7.97;;
60054;SDS011;45930;53.514;55.904;2024-01-27T02:16:26;15.25;;;9.38;;
60054;SDS011;45930;53.514;55.904;2024-01-27T02:17:27;11.73;;;8.40;;
60054;SDS011;45930;53.514;55.904;2024-01-27T02:18:28;8.70;;;7.77;;
60054;SDS011;45930;53.514;55.904;2024-01-27T02:19:29;13.82;;;8.73;;
60054;SDS011;45930;53.514;55.904;2024-01-27T02:20:30;12.73;;;7.73;;
60054;SDS011;45930;53.514;55.904;2024-01-27T02:21:31;12.77;;;7.67;;
60054;SDS011;45930;53.514;55.904;2024-01-27T02:22:35;12.30;;;8.00;;
60054;SDS011;45930;53.514;55.904;2024-01-27T02:23:36;11.98;;;7.88;;
60054;SDS011;45930;53.514;55.904;2024-01-27T02:24:36;15.00;;;8.43;;
60054;SDS011;45930;53.514;55.904;2024-01-27T02:25:37;12.13;;;8.53;;
60054;SDS011;45930;53.514;55.904;2024-01-27T02:26:38;13.53;;;8.07;;
60054;SDS011;45930;53.514;55.904;2024-01-27T02:27:39;14.27;;;8.20;;
60054;SDS011;45930;53.514;55.904;2024-01-27T02:28:39;15.17;;;7.97;;
60054;SDS011;45930;53.514;55.904;2024-01-27T02:29:40;14.80;;;7.97;;
60054;SDS011;45930;53.514;55.904;2024-01-27T02:30:41;11.23;;;8.87;;
60054;SDS011;45930;53.514;55.904;2024-01-27T02:31:41;12.07;;;8.80;;
60054;SDS011;45930;53.514;55.904;2024-01-27T02:32:42;16.10;;;8.07;;
60054;SDS011;45930;53.514;55.904;2024-01-27T02:33:43;14.53;;;9.17;;
60054;SDS011;45930;53.514;55.904;2024-01-27T02:34:44;12.88;;;8.82;;
60054;SDS011;45930;53.514;55.904;2024-01-27T02:35:45;13.40;;;9.43;;
60054;SDS011;45930;53.514;55.904;2024-01-27T02:36:45;12.93;;;8.80;;
60054;SDS011;45930;53.514;55.904;2024-01-27T02:37:46;15.10;;;8.80;;
60054;SDS011;45930;53.514;55.904;2024-01-27T02:38:47;13.13;;;8.43;;
60054;SDS011;45930;53.514;55.904;2024-01-27T02:39:47;12.90;;;8.83;;
60054;SDS011;45930;53.514;55.904;2024-01-27T02:40:48;17.63;;;8.53;;
60054;SDS011;45930;53.514;55.904;2024-01-27T02:41:49;18.77;;;9.37;;
60054;SDS011;45930;53.514;55.904;2024-01-27T02:42:50;17.80;;;8.90;;
60054;SDS011;45930;53.514;55.904;2024-01-27T02:43:50;13.73;;;8.17;;
60054;SDS011;45930;53.514;55.904;2024-01-27T02:44:51;13.90;;;8.63;;
60054;SDS011;45930;53.514;55.904;2024-01-27T02:45:52;15.93;;;9.83;;
60054;SDS011;45930;53.514;55.904;2024-01-27T02:46:52;15.73;;;9.00;;
60054;SDS011;45930;53.514;55.904;2024-01-27T02:47:53;18.27;;;11.13;;
60054;SDS011;45930;53.514;55.904;2024-01-27T02:48:54;15.10;;;9.83;;
60054;SDS011;45930;53.514;55.904;2024-01-27T02:49:55;17.70;;;10.27;;
60054;SDS011;45930;53.514;55.904;2024-01-27T02:50:55;14.20;;;9.67;;
60054;SDS011;45930;53.514;55.904;2024-01-27T02:51:58;18.60;;;11.15;;
60054;SDS011;45930;53.514;55.904;2024-01-27T02:52:59;17.90;;;10.10;;
60054;SDS011;45930;53.514;55.904;2024-01-27T02:54:00;16.87;;;10.60;;
60054;SDS011;45930;53.514;55.904;2024-01-27T02:55:00;18.50;;;10.13;;
60054;SDS011;45930;53.514;55.904;2024-01-27T02:56:01;14.87;;;9.73;;
60054;SDS011;45930;53.514;55.904;2024-01-27T02:57:02;14.90;;;10.13;;
60054;SDS011;45930;53.514;55.904;2024-01-27T02:58:04;16.83;;;10.40;;
60054;SDS011;45930;53.514;55.904;2024-01-27T02:59:05;16.80;;;10.05;;
60054;SDS011;45930;53.514;55.904;2024-01-27T03:00:05;14.27;;;9.53;;
60054;SDS011;45930;53.514;55.904;2024-01-27T03:01:07;15.60;;;9.93;;
60054;SDS011;45930;53.514;55.904;2024-01-27T03:02:07;15.17;;;10.17;;
60054;SDS011;45930;53.514;55.904;2024-01-27T03:03:08;15.77;;;9.33;;
60054;SDS011;45930;53.514;55.904;2024-01-27T03:04:09;17.70;;;10.90;;
60054;SDS011;45930;53.514;55.904;2024-01-27T03:05:09;20.30;;;11.33;;
60054;SDS011;45930;53.514;55.904;2024-01-27T03:06:14;16.45;;;9.98;;
60054;SDS011;45930;53.514;55.904;2024-01-27T03:07:14;17.60;;;10.47;;
60054;SDS011;45930;53.514;55.904;2024-01-27T03:08:15;17.40;;;10.77;;
60054;SDS011;45930;53.514;55.904;2024-01-27T03:09:16;15.47;;;10.43;;
60054;SDS011;45930;53.514;55.904;2024-01-27T03:10:16;17.83;;;10.67;;
60054;SDS011;45930;53.514;55.904;2024-01-27T03:11:17;20.40;;;10.37;;
60054;SDS011;45930;53.514;55.904;2024-01-27T03:12:18;19.10;;;11.47;;
60054;SDS011;45930;53.514;55.904;2024-01-27T03:13:19;16.33;;;11.25;;
60054;SDS011;45930;53.514;55.904;2024-01-27T03:14:20;16.00;;;10.30;;
60054;SDS011;45930;53.514;55.904;2024-01-27T03:15:20;20.47;;;10.83;;
60054;SDS011;45930;53.514;55.904;2024-01-27T03:16:21;18.63;;;11.23;;
60054;SDS011;45930;53.514;55.904;2024-01-27T03:17:22;17.97;;;10.30;;
60054;SDS011;45930;53.514;55.904;2024-01-27T03:18:23;17.83;;;11.67;;
60054;SDS011;45930;53.514;55.904;2024-01-27T03:19:25;16.08;;;11.23;;
60054;SDS011;45930;53.514;55.904;2024-01-27T03:20:25;19.13;;;11.77;;
60054;SDS011;45930;53.514;55.904;2024-01-27T03:21:27;17.23;;;11.35;;
60054;SDS011;45930;53.514;55.904;2024-01-27T03:22:29;18.38;;;11.07;;
60054;SDS011;45930;53.514;55.904;2024-01-27T03:23:30;19.23;;;12.13;;
60054;SDS011;45930;53.514;55.904;2024-01-27T03:24:31;14.83;;;10.30;;
60054;SDS011;45930;53.514;55.904;2024-01-27T03:25:31;17.73;;;11.43;;
60054;SDS011;45930;53.514;55.904;2024-01-27T03:26:32;20.20;;;11.03;;
60054;SDS011;45930;53.514;55.904;2024-01-27T03:27:33;16.67;;;11.40;;
60054;SDS011;45930;53.514;55.904;2024-01-27T03:28:34;16.85;;;10.85;;
60054;SDS011;45930;53.514;55.904;2024-01-27T03:29:35;19.23;;;11.07;;
60054;SDS011;45930;53.514;55.904;2024-01-27T03:30:36;18.48;;;11.75;;
60054;SDS011;45930;53.514;55.904;2024-01-27T03:31:36;17.67;;;10.77;;
60054;SDS011;45930;53.514;55.904;2024-01-27T03:32:37;16.02;;;11.52;;
60054;SDS011;45930;53.514;55.904;2024-01-27T03:33:38;19.63;;;11.60;;
60054;SDS011;45930;53.514;55.904;2024-01-27T03:34:45;18.83;;;11.23;;
60054;SDS011;45930;53.514;55.904;2024-01-27T03:35:45;18.17;;;11.68;;
60054;SDS011;45930;53.514;55.904;2024-01-27T03:36:49;19.43;;;12.90;;
60054;SDS011;45930;53.514;55.904;2024-01-27T03:37:50;18.23;;;11.50;;
60054;SDS011;45930;53.514;55.904;2024-01-27T03:38:51;17.27;;;12.05;;
60054;SDS011;45930;53.514;55.904;2024-01-27T03:39:52;22.35;;;12.07;;
60054;SDS011;45930;53.514;55.904;2024-01-27T03:40:53;19.40;;;12.57;;
60054;SDS011;45930;53.514;55.904;2024-01-27T03:41:54;16.67;;;11.83;;
60054;SDS011;45930;53.514;55.904;2024-01-27T03:42:56;22.10;;;13.03;;
60054;SDS011;45930;53.514;55.904;2024-01-27T03:43:57;19.45;;;11.82;;
60054;SDS011;45930;53.514;55.904;2024-01-27T03:44:57;17.13;;;11.23;;
60054;SDS011;45930;53.514;55.904;2024-01-27T03:45:58;16.30;;;11.03;;
60054;SDS011;45930;53.514;55.904;2024-01-27T03:46:59;17.80;;;11.23;;
60054;SDS011;45930;53.514;55.904;2024-01-27T03:48:00;16.07;;;10.03;;
60054;SDS011;45930;53.514;55.904;2024-01-27T03:49:00;15.80;;;8.63;;
60054;SDS011;45930;53.514;55.904;2024-01-27T03:50:01;15.03;;;8.73;;
60054;SDS011;45930;53.514;55.904;2024-01-27T03:51:02;15.57;;;9.80;;
60054;SDS011;45930;53.514;55.904;2024-01-27T03:52:04;15.50;;;9.50;;
60054;SDS011;45930;53.514;55.904;2024-01-27T03:53:05;15.93;;;9.10;;
60054;SDS011;45930;53.514;55.904;2024-01-27T03:54:05;12.80;;;8.97;;
60054;SDS011;45930;53.514;55.904;2024-01-27T03:55:06;13.73;;;8.65;;
60054;SDS011;45930;53.514;55.904;2024-01-27T03:56:10;14.33;;;8.23;;
60054;SDS011;45930;53.514;55.904;2024-01-27T03:57:12;11.27;;;7.70;;
60054;SDS011;45930;53.514;55.904;2024-01-27T03:58:13;12.30;;;8.33;;
60054;SDS011;45930;53.514;55.904;2024-01-27T03:59:13;15.17;;;8.40;;
60054;SDS011;45930;53.514;55.904;2024-01-27T04:00:14;14.30;;;9.20;;
60054;SDS011;45930;53.514;55.904;2024-01-27T04:01:15;15.03;;;9.53;;
60054;SDS011;45930;53.514;55.904;2024-01-27T04:02:16;15.03;;;9.90;;
60054;SDS011;45930;53.514;55.904;2024-01-27T04:03:16;14.37;;;9.53;;
60054;SDS011;45930;53.514;55.904;2024-01-27T04:04:17;15.97;;;9.60;;
60054;SDS011;45930;53.514;55.904;2024-01-27T04:05:18;13.33;;;9.63;;
60054;SDS011;45930;53.514;55.904;2024-01-27T04:06:19;14.87;;;9.80;;
60054;SDS011;45930;53.514;55.904;2024-01-27T04:07:19;15.00;;;9.17;;
60054;SDS011;45930;53.514;55.904;2024-01-27T04:08:20;21.20;;;10.93;;
60054;SDS011;45930;53.514;55.904;2024-01-27T04:09:21;14.13;;;10.40;;
60054;SDS011;45930;53.514;55.904;2024-01-27T04:10:22;18.67;;;10.03;;
60054;SDS011;45930;53.514;55.904;2024-01-27T04:11:23;15.60;;;10.88;;
60054;SDS011;45930;53.514;55.904;2024-01-27T04:12:24;15.07;;;9.50;;
60054;SDS011;45930;53.514;55.904;2024-01-27T04:13:24;16.87;;;9.63;;
60054;SDS011;45930;53.514;55.904;2024-01-27T04:14:25;15.47;;;10.87;;
60054;SDS011;45930;53.514;55.904;2024-01-27T04:15:26;15.97;;;9.83;;
60054;SDS011;45930;53.514;55.904;2024-01-27T04:16:27;17.43;;;10.57;;
60054;SDS011;45930;53.514;55.904;2024-01-27T04:17:27;17.37;;;10.30;;
60054;SDS011;45930;53.514;55.904;2024-01-27T04:18:28;17.17;;;11.03;;
60054;SDS011;45930;53.514;55.904;2024-01-27T04:19:29;18.83;;;11.70;;
60054;SDS011;45930;53.514;55.904;2024-01-27T04:20:29;16.47;;;11.70;;
60054;SDS011;45930;53.514;55.904;2024-01-27T04:21:30;18.90;;;11.73;;
60054;SDS011;45930;53.514;55.904;2024-01-27T04:22:31;16.47;;;11.47;;
60054;SDS011;45930;53.514;55.904;2024-01-27T04:23:31;20.83;;;11.10;;
60054;SDS011;45930;53.514;55.904;2024-01-27T04:24:33;19.73;;;11.85;;
60054;SDS011;45930;53.514;55.904;2024-01-27T04:25:34;17.65;;;11.95;;
60054;SDS011;45930;53.514;55.904;2024-01-27T04:26:35;17.83;;;12.17;;
60054;SDS011;45930;53.514;55.904;2024-01-27T04:27:38;24.87;;;13.17;;
60054;SDS011;45930;53.514;55.904;2024-01-27T04:28:39;20.65;;;12.63;;
60054;SDS011;45930;53.514;55.904;2024-01-27T04:29:40;19.73;;;12.37;;
60054;SDS011;45930;53.514;55.904;2024-01-27T04:30:42;21.17;;;12.20;;
60054;SDS011;45930;53.514;55.904;2024-01-27T04:31:42;22.07;;;14.33;;
60054;SDS011;45930;53.514;55.904;2024-01-27T04:32:43;20.10;;;13.10;;
60054;SDS011;45930;53.514;55.904;2024-01-27T04:33:44;20.73;;;12.30;;
60054;SDS011;45930;53.514;55.904;2024-01-27T04:34:44;24.43;;;14.43;;
60054;SDS011;45930;53.514;55.904;2024-01-27T04:35:45;23.27;;;12.70;;
60054;SDS011;45930;53.514;55.904;2024-01-27T04:36:46;19.53;;;12.80;;
60054;SDS011;45930;53.514;55.904;2024-01-27T04:37:47;21.17;;;13.93;;
60054;SDS011;45930;53.514;55.904;2024-01-27T04:38:47;23.73;;;14.40;;
60054;SDS011;45930;53.514;55.904;2024-01-27T04:39:48;21.53;;;12.90;;
60054;SDS011;45930;53.514;55.904;2024-01-27T04:40:49;20.87;;;11.87;;
60054;SDS011;45930;53.514;55.904;2024-01-27T04:41:51;21.95;;;13.38;;
60054;SDS011;45930;53.514;55.904;2024-01-27T04:42:51;21.37;;;13.17;;
60054;SDS011;45930;53.514;55.904;2024-01-27T04:43:53;22.88;;;12.30;;
60054;SDS011;45930;53.514;55.904;2024-01-27T04:44:55;19.80;;;12.00;;
60054;SDS011;45930;53.514;55.904;2024-01-27T04:45:56;23.97;;;13.50;;
60054;SDS011;45930;53.514;55.904;2024-01-27T04:46:57;18.90;;;12.03;;
60054;SDS011;45930;53.514;55.904;2024-01-27T04:47:57;20.80;;;12.40;;
60054;SDS011;45930;53.514;55.904;2024-01-27T04:49:00;25.10;;;13.50;;
60054;SDS011;45930;53.514;55.904;2024-01-27T04:50:01;23.17;;;13.63;;
60054;SDS011;45930;53.514;55.904;2024-01-27T04:51:04;26.15;;;14.80;;
60054;SDS011;45930;53.514;55.904;2024-01-27T04:52:05;23.77;;;14.87;;
60054;SDS011;45930;53.514;55.904;2024-01-27T04:53:06;26.77;;;15.57;;
60054;SDS011;45930;53.514;55.904;2024-01-27T04:54:08;23.03;;;14.60;;
60054;SDS011;45930;53.514;55.904;2024-01-27T04:55:10;29.48;;;16.88;;
60054;SDS011;45930;53.514;55.904;2024-01-27T04:56:11;26.90;;;14.77;;
60054;SDS011;45930;53.514;55.904;2024-01-27T04:57:13;22.88;;;14.55;;
60054;SDS011;45930;53.514;55.904;2024-01-27T04:58:13;24.23;;;15.83;;
60054;SDS011;45930;53.514;55.904;2024-01-27T04:59:14;21.40;;;15.00;;
60054;SDS011;45930;53.514;55.904;2024-01-27T05:00:15;20.57;;;13.60;;
60054;SDS011;45930;53.514;55.904;2024-01-27T05:01:16;21.53;;;15.13;;
60054;SDS011;45930;53.514;55.904;2024-01-27T05:02:17;22.10;;;13.93;;
60054;SDS011;45930;53.514;55.904;2024-01-27T05:03:18;21.70;;;14.05;;
60054;SDS011;45930;53.514;55.904;2024-01-27T05:04:19;22.87;;;14.10;;
60054;SDS011;45930;53.514;55.904;2024-01-27T05:05:19;23.23;;;14.47;;
60054;SDS011;45930;53.514;55.904;2024-01-27T05:06:20;26.53;;;14.33;;
60054;SDS011;45930;53.514;55.904;2024-01-27T05:07:21;23.33;;;14.57;;
60054;SDS011;45930;53.514;55.904;2024-01-27T05:08:22;23.70;;;16.10;;
60054;SDS011;45930;53.514;55.904;2024-01-27T05:09:22;29.57;;;19.47;;
60054;SDS011;45930;53.514;55.904;2024-01-27T05:10:23;38.00;;;23.43;;
60054;SDS011;45930;53.514;55.904;2024-01-27T05:11:28;42.88;;;23.75;;
60054;SDS011;45930;53.514;55.904;2024-01-27T05:12:31;35.60;;;22.33;;
60054;SDS011;45930;53.514;55.904;2024-01-27T05:13:31;40.80;;;23.40;;
60054;SDS011;45930;53.514;55.904;2024-01-27T05:14:32;44.57;;;25.37;;
60054;SDS011;45930;53.514;55.904;2024-01-27T05:15:33;45.93;;;25.67;;
60054;SDS011;45930;53.514;55.904;2024-01-27T05:16:34;43.13;;;27.20;;
60054;SDS011;45930;53.514;55.904;2024-01-27T05:17:34;49.13;;;28.93;;
60054;SDS011;45930;53.514;55.904;2024-01-27T05:18:35;42.23;;;28.43;;
60054;SDS011;45930;53.514;55.904;2024-01-27T05:19:36;45.60;;;28.05;;
60054;SDS011;45930;53.514;55.904;2024-01-27T05:20:37;49.03;;;28.00;;
60054;SDS011;45930;53.514;55.904;2024-01-27T05:21:38;57.40;;;33.53;;
60054;SDS011;45930;53.514;55.904;2024-01-27T05:22:38;56.33;;;32.93;;
60054;SDS011;45930;53.514;55.904;2024-01-27T05:23:39;58.97;;;35.10;;
60054;SDS011;45930;53.514;55.904;2024-01-27T05:24:40;60.87;;;36.67;;
60054;SDS011;45930;53.514;55.904;2024-01-27T05:25:41;65.33;;;38.30;;
60054;SDS011;45930;53.514;55.904;2024-01-27T05:26:41;66.43;;;38.67;;
60054;SDS011;45930;53.514;55.904;2024-01-27T05:27:42;61.13;;;39.30;;
60054;SDS011;45930;53.514;55.904;2024-01-27T05:28:43;63.80;;;40.87;;
60054;SDS011;45930;53.514;55.904;2024-01-27T05:29:44;63.78;;;40.90;;
60054;SDS011;45930;53.514;55.904;2024-01-27T05:30:45;73.67;;;45.63;;
60054;SDS011;45930;53.514;55.904;2024-01-27T05:31:45;76.97;;;49.17;;
60054;SDS011;45930;53.514;55.904;2024-01-27T05:32:46;79.60;;;50.80;;
60054;SDS011;45930;53.514;55.904;2024-01-27T05:33:47;84.80;;;53.33;;
60054;SDS011;45930;53.514;55.904;2024-01-27T05:34:48;86.03;;;52.10;;
60054;SDS011;45930;53.514;55.904;2024-01-27T05:35:48;71.37;;;49.53;;
60054;SDS011;45930;53.514;55.904;2024-01-27T05:36:49;62.97;;;42.60;;
60054;SDS011;45930;53.514;55.904;2024-01-27T05:37:50;66.77;;;42.30;;
60054;SDS011;45930;53.514;55.904;2024-01-27T05:38:51;65.10;;;40.22;;
60054;SDS011;45930;53.514;55.904;2024-01-27T05:39:52;65.97;;;40.07;;
60054;SDS011;45930;53.514;55.904;2024-01-27T05:40:53;61.53;;;38.43;;
60054;SDS011;45930;53.514;55.904;2024-01-27T05:41:55;62.70;;;35.92;;
60054;SDS011;45930;53.514;55.904;2024-01-27T05:42:55;56.97;;;35.23;;
60054;SDS011;45930;53.514;55.904;2024-01-27T05:43:56;55.53;;;34.20;;
60054;SDS011;45930;53.514;55.904;2024-01-27T05:44:57;59.08;;;34.35;;
60054;SDS011;45930;53.514;55.904;2024-01-27T05:45:58;58.80;;;36.83;;
60054;SDS011;45930;53.514;55.904;2024-01-27T05:46:59;62.50;;;36.40;;
60054;SDS011;45930;53.514;55.904;2024-01-27T05:48:00;54.67;;;35.20;;
60054;SDS011;45930;53.514;55.904;2024-01-27T05:49:00;59.00;;;33.80;;
60054;SDS011;45930;53.514;55.904;2024-01-27T05:50:03;60.03;;;35.38;;
60054;SDS011;45930;53.514;55.904;2024-01-27T05:51:04;69.05;;;38.25;;
60054;SDS011;45930;53.514;55.904;2024-01-27T05:52:05;73.20;;;43.83;;
60054;SDS011;45930;53.514;55.904;2024-01-27T05:53:06;77.53;;;45.37;;
60054;SDS011;45930;53.514;55.904;2024-01-27T05:54:06;69.47;;;39.47;;
60054;SDS011;45930;53.514;55.904;2024-01-27T05:55:08;55.17;;;35.75;;